Time;durP1;ratioP1;P1;durP2;ratioP2;P2;SDS_P1;SDS_P2;PMS_P1;PMS_P2;Temp;Humidity;BMP_temperature;BMP_pressure;BME280_temperature;BME280_humidity;BME280_pressure;Samples;Min_cycle;Max_cycle;Signal;HPM_P1;HPM_P2
2021/12/08 00:02:10;;;;;;;;;;;4.60;99.90;;;;;;5050472;28;19962;-76
2021/12/08 00:04:35;;;;;;;;;;;4.60;99.90;;;;;;5048199;28;19913;-76
2021/12/08 00:07:02;;;;;;;;;;;4.50;99.90;;;;;;5037957;28;19920;-76
2021/12/08 00:09:35;;;;;;;;;;;4.60;99.90;;;;;;5055241;28;19978;-76
2021/12/08 00:14:45;;;;;;;;;;;4.60;99.90;;;;;;5055043;28;20365;-76
2021/12/08 00:17:11;;;;;;;;;;;4.60;99.90;;;;;;5053459;28;19912;-76
2021/12/08 00:19:36;;;;;;;;;;;4.60;99.90;;;;;;5055619;28;19912;-76
2021/12/08 00:22:02;;;;;;;;;;;4.60;99.90;;;;;;5052950;28;19925;-76
2021/12/08 00:24:28;;;;;;;;;;;4.60;99.90;;;;;;5051221;28;20312;-75
2021/12/08 00:26:56;;;;;;;;;;;4.70;99.90;;;;;;5051741;28;19920;-76
2021/12/08 00:29:22;;;;;;;;;;;4.60;99.90;;;;;;5051937;28;19925;-76
2021/12/08 00:31:47;;;;;;;;;;;4.60;99.90;;;;;;5052004;28;19931;-76
2021/12/08 00:34:14;;;;;;;;;;;4.60;99.90;;;;;;5052504;28;20287;-76
2021/12/08 00:36:45;;;;;;;;;;;4.60;99.90;;;;;;5053391;28;19916;-75
2021/12/08 00:39:11;;;;;;;;;;;4.60;99.90;;;;;;5066619;28;19957;-76
2021/12/08 00:41:37;;;;;;;;;;;4.60;99.90;;;;;;5052458;28;19916;-76
2021/12/08 00:44:04;;;;;;;;;;;4.60;99.90;;;;;;5053953;28;20267;-76
2021/12/08 00:46:30;;;;;;;;;;;4.60;99.90;;;;;;5059600;28;19913;-76
2021/12/08 00:48:55;;;;;;;;;;;4.60;99.90;;;;;;5068193;28;19943;-76
2021/12/08 00:51:21;;;;;;;;;;;4.70;99.90;;;;;;5067716;28;19923;-76
2021/12/08 00:53:46;;;;;;;;;;;4.70;99.90;;;;;;5050153;28;19913;-76
2021/12/08 00:56:12;;;;;;;;;;;4.70;99.90;;;;;;5061293;28;19958;-76
2021/12/08 00:58:38;;;;;;;;;;;4.70;99.90;;;;;;5053552;28;19920;-76
2021/12/08 01:01:05;;;;;;;;;;;4.80;99.90;;;;;;5053846;28;19939;-76
2021/12/08 01:03:30;;;;;;;;;;;4.80;99.90;;;;;;5049106;28;20219;-76
2021/12/08 01:05:56;;;;;;;;;;;4.80;99.90;;;;;;5069688;28;19921;-76
2021/12/08 01:08:23;;;;;;;;;;;4.80;99.90;;;;;;5054540;28;20410;-76
2021/12/08 01:10:50;;;;;;;;;;;4.90;99.90;;;;;;5055590;28;19921;-75
2021/12/08 01:13:16;;;;;;;;;;;4.90;99.90;;;;;;5065779;28;19919;-76
2021/12/08 01:15:44;;;;;;;;;;;4.90;99.90;;;;;;5047697;28;19924;-76
2021/12/08 01:18:09;;;;;;;;;;;4.90;99.90;;;;;;5049356;28;19917;-76
2021/12/08 01:20:35;;;;;;;;;;;4.90;99.90;;;;;;5068807;28;19917;-76
2021/12/08 01:23:01;;;;;;;;;;;4.90;99.90;;;;;;5052819;28;19932;-76
2021/12/08 01:25:26;;;;;;;;;;;4.90;99.90;;;;;;5044416;28;20018;-76
2021/12/08 01:27:52;;;;;;;;;;;4.90;99.90;;;;;;5062827;28;19944;-75
2021/12/08 01:30:18;;;;;;;;;;;5.00;99.90;;;;;;5043127;28;19921;-76
2021/12/08 01:32:43;;;;;;;;;;;5.00;99.90;;;;;;5049559;28;20221;-76
2021/12/08 01:35:10;;;;;;;;;;;5.00;99.90;;;;;;5046264;28;20336;-76
2021/12/08 01:37:36;;;;;;;;;;;5.00;99.90;;;;;;5044228;28;19952;-76
2021/12/08 01:40:03;;;;;;;;;;;5.00;99.90;;;;;;5041831;28;19913;-76
2021/12/08 01:42:35;;;;;;;;;;;5.10;99.90;;;;;;5045995;28;19991;-76
2021/12/08 01:47:44;;;;;;;;;;;5.10;99.90;;;;;;5048398;28;19920;-76
2021/12/08 01:50:10;;;;;;;;;;;5.10;99.90;;;;;;5042071;28;19913;-77
2021/12/08 01:52:36;;;;;;;;;;;5.20;99.90;;;;;;5067748;28;19935;-77
2021/12/08 01:55:02;;;;;;;;;;;5.10;99.90;;;;;;5044483;28;19913;-77
2021/12/08 01:57:28;;;;;;;;;;;5.20;99.90;;;;;;5063315;28;20020;-76
2021/12/08 01:59:53;;;;;;;;;;;5.20;99.90;;;;;;5066050;28;20274;-76
2021/12/08 02:02:19;;;;;;;;;;;5.20;99.90;;;;;;5066565;28;19921;-76
2021/12/08 02:04:44;;;;;;;;;;;5.20;99.90;;;;;;5052099;28;19913;-76
2021/12/08 02:07:10;;;;;;;;;;;5.20;99.90;;;;;;5054333;28;20205;-76
2021/12/08 02:09:36;;;;;;;;;;;5.20;99.90;;;;;;5054908;28;19913;-76
2021/12/08 02:12:01;;;;;;;;;;;5.20;99.90;;;;;;5049563;28;20019;-76
2021/12/08 02:14:27;;;;;;;;;;;5.20;99.90;;;;;;5050446;28;19914;-76
2021/12/08 02:16:54;;;;;;;;;;;5.30;99.90;;;;;;5048848;28;19943;-76
2021/12/08 02:19:20;;;;;;;;;;;5.30;99.90;;;;;;5070079;28;20009;-76
2021/12/08 02:21:52;;;;;;;;;;;5.30;99.90;;;;;;5069336;28;20009;-76
2021/12/08 02:24:18;;;;;;;;;;;5.30;99.90;;;;;;5050690;28;19956;-76
2021/12/08 02:26:45;;;;;;;;;;;5.20;99.90;;;;;;5062109;28;19917;-77
2021/12/08 02:29:14;;;;;;;;;;;5.20;99.90;;;;;;5061582;28;19919;-76
2021/12/08 02:31:51;;;;;;;;;;;5.30;99.90;;;;;;5049837;28;19967;-77
2021/12/08 02:48:00;;;;;;;;;;;5.40;99.90;;;;;;5043646;28;20441;-76
2021/12/08 02:50:29;;;;;;;;;;;5.40;99.90;;;;;;5051073;28;20008;-77
2021/12/08 02:52:55;;;;;;;;;;;5.40;99.90;;;;;;5051462;28;19960;-76
2021/12/08 02:55:21;;;;;;;;;;;5.40;99.90;;;;;;5051301;28;20008;-77
2021/12/08 02:57:47;;;;;;;;;;;5.40;99.90;;;;;;5053301;28;20011;-76
2021/12/08 03:00:15;;;;;;;;;;;5.40;99.90;;;;;;5049425;28;19917;-76
2021/12/08 03:02:41;;;;;;;;;;;5.40;99.90;;;;;;5052254;28;20014;-76
2021/12/08 03:05:07;;;;;;;;;;;5.50;99.90;;;;;;5050338;28;20055;-76
2021/12/08 03:07:33;;;;;;;;;;;5.50;99.90;;;;;;5050983;28;20446;-76
2021/12/08 03:10:04;;;;;;;;;;;5.40;99.90;;;;;;5051437;28;20046;-76
2021/12/08 03:12:30;;;;;;;;;;;5.40;99.90;;;;;;5050079;28;19917;-75
2021/12/08 03:14:56;;;;;;;;;;;5.50;99.90;;;;;;5051954;28;19924;-76
2021/12/08 03:17:21;;;;;;;;;;;5.40;99.90;;;;;;5052499;28;20316;-76
2021/12/08 03:19:47;;;;;;;;;;;5.50;99.90;;;;;;5055671;28;19916;-76
2021/12/08 03:22:13;;;;;;;;;;;5.50;99.90;;;;;;5061749;28;19921;-76
2021/12/08 03:24:42;;;;;;;;;;;5.50;99.90;;;;;;5054439;28;19952;-76
2021/12/08 03:27:11;;;;;;;;;;;5.50;99.90;;;;;;5061173;28;19919;-76
2021/12/08 03:32:28;;;;;;;;;;;5.50;99.90;;;;;;5050899;28;19919;-76
2021/12/08 03:34:54;;;;;;;;;;;5.50;99.90;;;;;;5054675;28;19919;-75
2021/12/08 03:37:21;;;;;;;;;;;5.50;99.90;;;;;;5054574;28;19921;-76
2021/12/08 03:39:49;;;;;;;;;;;5.50;99.90;;;;;;5052797;28;20207;-76
2021/12/08 03:42:14;;;;;;;;;;;5.50;99.90;;;;;;5054431;28;19925;-76
2021/12/08 03:44:40;;;;;;;;;;;5.50;99.90;;;;;;5053222;28;19944;-76
2021/12/08 03:47:14;;;;;;;;;;;5.50;99.90;;;;;;5055153;28;19947;-76
2021/12/08 03:49:39;;;;;;;;;;;5.40;99.90;;;;;;5056323;28;19917;-76
2021/12/08 03:52:05;;;;;;;;;;;5.40;99.90;;;;;;5055517;28;19970;-76
2021/12/08 03:54:31;;;;;;;;;;;5.40;99.90;;;;;;5072336;28;20319;-76
2021/12/08 03:56:56;;;;;;;;;;;5.40;99.90;;;;;;5056748;28;19913;-76
2021/12/08 03:59:22;;;;;;;;;;;5.40;99.90;;;;;;5056827;28;19920;-76
2021/12/08 04:01:48;;;;;;;;;;;5.40;99.90;;;;;;5061155;28;19929;-76
2021/12/08 04:04:14;;;;;;;;;;;5.40;99.90;;;;;;5056710;28;19935;-77
2021/12/08 04:06:45;;;;;;;;;;;5.40;99.90;;;;;;5065166;28;19913;-77
2021/12/08 04:09:47;;;;;;;;;;;5.40;99.90;;;;;;5056687;28;20323;-76
2021/12/08 04:12:04;;;;;;;;;;;5.40;99.90;;;;;;5055071;28;20270;-77
2021/12/08 04:14:37;;;;;;;;;;;5.50;99.90;;;;;;5055373;28;20000;-76
2021/12/08 04:17:09;;;;;;;;;;;5.40;99.90;;;;;;5054896;28;19917;-77
2021/12/08 04:19:35;;;;;;;;;;;5.50;99.90;;;;;;5050056;28;19952;-76
2021/12/08 04:22:03;;;;;;;;;;;5.40;99.90;;;;;;5052127;28;19999;-77
2021/12/08 04:24:29;;;;;;;;;;;5.50;99.90;;;;;;5060081;28;19913;-77
2021/12/08 04:27:00;;;;;;;;;;;5.50;99.90;;;;;;5059483;28;20338;-77
2021/12/08 04:29:28;;;;;;;;;;;5.40;99.90;;;;;;5055779;28;19912;-76
2021/12/08 04:31:54;;;;;;;;;;;5.40;99.90;;;;;;5056349;28;20322;-77
2021/12/08 04:34:24;;;;;;;;;;;5.50;99.90;;;;;;5054841;28;19912;-77
2021/12/08 04:36:52;;;;;;;;;;;5.50;99.90;;;;;;5063211;28;19913;-77
2021/12/08 04:39:36;;;;;;;;;;;5.50;99.90;;;;;;5071125;28;19920;-76
2021/12/08 04:42:07;;;;;;;;;;;5.40;99.90;;;;;;5069808;28;19935;-77
2021/12/08 04:44:40;;;;;;;;;;;5.40;99.90;;;;;;5043554;28;20521;-77
2021/12/08 04:53:24;;;;;;;;;;;5.40;99.90;;;;;;5044901;28;19955;-77
2021/12/08 05:01:27;;;;;;;;;;;5.30;99.90;;;;;;5038386;28;19994;-76
2021/12/08 05:04:24;;;;;;;;;;;5.30;99.90;;;;;;5051663;28;20371;-77
2021/12/08 05:07:03;;;;;;;;;;;5.20;99.90;;;;;;5050639;28;21502;-76
2021/12/08 05:09:33;;;;;;;;;;;5.10;99.90;;;;;;5043260;28;19917;-77
2021/12/08 05:12:05;;;;;;;;;;;5.10;99.90;;;;;;5044880;28;19921;-77
2021/12/08 05:14:34;;;;;;;;;;;5.00;99.90;;;;;;5052615;28;19920;-77
2021/12/08 05:17:04;;;;;;;;;;;5.00;99.90;;;;;;5044885;28;19959;-77
2021/12/08 05:19:31;;;;;;;;;;;5.00;99.90;;;;;;5044994;28;19924;-77
2021/12/08 05:21:56;;;;;;;;;;;5.00;99.90;;;;;;5044110;28;19924;-76
2021/12/08 05:24:24;;;;;;;;;;;5.10;99.90;;;;;;5053111;28;19917;-77
2021/12/08 05:26:59;;;;;;;;;;;5.10;99.90;;;;;;5054509;28;19913;-76
2021/12/08 05:29:28;;;;;;;;;;;5.10;99.90;;;;;;5062909;28;19913;-77
2021/12/08 05:31:55;;;;;;;;;;;5.00;99.90;;;;;;5062252;28;19916;-76
2021/12/08 05:34:21;;;;;;;;;;;5.00;99.90;;;;;;5061638;28;19912;-77
2021/12/08 05:36:47;;;;;;;;;;;4.90;99.90;;;;;;5069921;28;19931;-77
2021/12/08 05:39:19;;;;;;;;;;;4.90;99.90;;;;;;5054652;28;20011;-77
2021/12/08 05:41:46;;;;;;;;;;;4.80;99.90;;;;;;5061920;28;19921;-77
2021/12/08 05:44:11;;;;;;;;;;;4.80;99.90;;;;;;5054134;28;19917;-77
2021/12/08 05:46:41;;;;;;;;;;;4.80;99.90;;;;;;5052204;28;20310;-76
2021/12/08 05:49:06;;;;;;;;;;;4.80;99.90;;;;;;5048282;28;19912;-77
2021/12/08 05:51:33;;;;;;;;;;;4.80;99.90;;;;;;5051259;28;20334;-77
2021/12/08 05:54:01;;;;;;;;;;;4.70;99.90;;;;;;5050829;28;19912;-76
2021/12/08 05:56:27;;;;;;;;;;;4.70;99.90;;;;;;5048912;28;19918;-76
2021/12/08 05:58:54;;;;;;;;;;;4.60;99.90;;;;;;5064469;28;19928;-76
2021/12/08 06:01:28;;;;;;;;;;;4.60;99.90;;;;;;5051499;28;19916;-77
2021/12/08 06:03:53;;;;;;;;;;;4.50;99.90;;;;;;5060961;28;20566;-75
2021/12/08 06:06:20;;;;;;;;;;;4.50;99.90;;;;;;5048933;28;19970;-76
2021/12/08 06:08:46;;;;;;;;;;;4.50;99.90;;;;;;5051262;28;19963;-76
2021/12/08 06:11:12;;;;;;;;;;;4.40;99.90;;;;;;5050181;28;20262;-77
2021/12/08 06:13:39;;;;;;;;;;;4.40;99.90;;;;;;5046140;28;20362;-77
2021/12/08 06:16:06;;;;;;;;;;;4.40;99.90;;;;;;5050006;28;19919;-76
2021/12/08 06:18:38;;;;;;;;;;;4.30;99.90;;;;;;5060630;28;19913;-77
2021/12/08 06:21:05;;;;;;;;;;;4.30;99.90;;;;;;5046177;28;19920;-76
2021/12/08 06:23:32;;;;;;;;;;;4.20;99.90;;;;;;5048776;28;19983;-76
2021/12/08 06:25:59;;;;;;;;;;;4.20;99.90;;;;;;5059394;28;19919;-76
2021/12/08 06:28:24;;;;;;;;;;;4.20;99.90;;;;;;5045826;28;19917;-77
2021/12/08 06:30:50;;;;;;;;;;;4.30;99.90;;;;;;5059343;28;20799;-76
2021/12/08 06:33:17;;;;;;;;;;;4.30;99.90;;;;;;5057368;28;19932;-79
2021/12/08 06:35:49;;;;;;;;;;;4.30;99.90;;;;;;5061792;28;19917;-77
2021/12/08 06:38:16;;;;;;;;;;;4.30;99.90;;;;;;5064838;28;20391;-77
2021/12/08 06:40:42;;;;;;;;;;;4.20;99.90;;;;;;5040364;28;20011;-77
2021/12/08 06:43:09;;;;;;;;;;;4.20;99.90;;;;;;5040476;28;20016;-77
2021/12/08 06:45:37;;;;;;;;;;;4.20;99.90;;;;;;5038465;28;19925;-77
2021/12/08 06:48:04;;;;;;;;;;;4.10;99.90;;;;;;5043224;28;19943;-77
2021/12/08 06:50:33;;;;;;;;;;;4.10;99.90;;;;;;5044956;28;19917;-77
2021/12/08 06:52:59;;;;;;;;;;;4.10;99.90;;;;;;5044165;28;20007;-77
2021/12/08 06:55:26;;;;;;;;;;;4.00;99.90;;;;;;5063369;28;20012;-77
2021/12/08 06:57:57;;;;;;;;;;;4.00;99.90;;;;;;5069877;28;19920;-77
2021/12/08 07:00:37;;;;;;;;;;;3.90;99.90;;;;;;5047505;28;19924;-77
2021/12/08 07:08:24;;;;;;;;;;;3.90;99.90;;;;;;5049391;28;19912;-76
2021/12/08 07:10:52;;;;;;;;;;;3.80;99.90;;;;;;5065120;28;19921;-78
2021/12/08 07:13:21;;;;;;;;;;;3.80;99.90;;;;;;5055647;28;20292;-77
2021/12/08 07:15:51;;;;;;;;;;;3.80;99.90;;;;;;5049008;28;20211;-77
2021/12/08 07:18:20;;;;;;;;;;;3.80;99.90;;;;;;5045649;28;19913;-76
2021/12/08 07:20:47;;;;;;;;;;;3.80;99.90;;;;;;5048706;28;19937;-77
2021/12/08 07:23:13;;;;;;;;;;;3.80;99.90;;;;;;5046591;28;19927;-77
2021/12/08 07:25:39;;;;;;;;;;;3.70;99.90;;;;;;5047761;28;19913;-76
2021/12/08 07:28:05;;;;;;;;;;;3.70;99.90;;;;;;5050653;28;19967;-76
2021/12/08 07:30:34;;;;;;;;;;;3.70;99.90;;;;;;5047030;28;20011;-76
2021/12/08 07:33:00;;;;;;;;;;;3.70;99.90;;;;;;5047189;28;20005;-76
2021/12/08 07:35:30;;;;;;;;;;;3.70;99.90;;;;;;5056995;28;20053;-77
2021/12/08 07:37:57;;;;;;;;;;;3.70;99.90;;;;;;5056855;28;19916;-76
2021/12/08 07:40:25;;;;;;;;;;;3.70;99.90;;;;;;5039283;28;22308;-76
2021/12/08 07:42:59;;;;;;;;;;;3.80;99.90;;;;;;5039564;28;20265;-76
2021/12/08 07:45:31;;;;;;;;;;;3.80;99.90;;;;;;5054488;28;19924;-77
2021/12/08 07:47:56;;;;;;;;;;;3.80;99.90;;;;;;5053378;28;19917;-77
2021/12/08 07:50:22;;;;;;;;;;;3.80;99.90;;;;;;5053909;28;20215;-77
2021/12/08 07:52:48;;;;;;;;;;;3.70;99.90;;;;;;5064732;28;20346;-77
2021/12/08 07:55:17;;;;;;;;;;;3.70;99.90;;;;;;5051770;28;19920;-77
2021/12/08 07:57:43;;;;;;;;;;;3.70;99.90;;;;;;5062788;28;19927;-77
2021/12/08 08:00:24;;;;;;;;;;;3.70;99.90;;;;;;5048209;28;19917;-76
2021/12/08 08:02:50;;;;;;;;;;;3.60;99.90;;;;;;5043433;28;19932;-76
2021/12/08 08:05:17;;;;;;;;;;;3.70;99.90;;;;;;5049890;28;19924;-77
2021/12/08 08:07:44;;;;;;;;;;;3.70;99.90;;;;;;5047636;28;20008;-78
2021/12/08 08:10:14;;;;;;;;;;;3.70;99.90;;;;;;5050424;28;19917;-77
2021/12/08 08:12:41;;;;;;;;;;;3.70;99.90;;;;;;5062905;28;20055;-76
2021/12/08 08:15:11;;;;;;;;;;;3.80;99.90;;;;;;5051021;28;20326;-77
2021/12/08 08:17:41;;;;;;;;;;;3.80;99.90;;;;;;5048857;28;19917;-77
2021/12/08 08:20:12;;;;;;;;;;;3.80;99.90;;;;;;5048473;28;19920;-77
2021/12/08 08:22:38;;;;;;;;;;;3.80;99.90;;;;;;5047784;28;20006;-76
2021/12/08 08:25:06;;;;;;;;;;;3.80;99.90;;;;;;5047879;28;19913;-76
2021/12/08 08:27:32;;;;;;;;;;;3.80;99.90;;;;;;5039885;28;19925;-77
2021/12/08 08:29:58;;;;;;;;;;;3.80;99.90;;;;;;5051635;28;19966;-78
2021/12/08 08:32:29;;;;;;;;;;;3.90;99.90;;;;;;5053951;28;19917;-77
2021/12/08 08:35:04;;;;;;;;;;;3.90;99.90;;;;;;5041323;28;20220;-76
2021/12/08 08:37:29;;;;;;;;;;;3.90;99.90;;;;;;5051015;28;19917;-77
2021/12/08 08:40:00;;;;;;;;;;;3.90;99.90;;;;;;5045993;28;19920;-77
2021/12/08 08:42:29;;;;;;;;;;;4.00;99.90;;;;;;5061898;28;20386;-77
2021/12/08 08:44:58;;;;;;;;;;;4.00;99.90;;;;;;5044099;28;19916;-76
2021/12/08 08:47:36;;;;;;;;;;;4.00;99.90;;;;;;5041321;28;19923;-76
2021/12/08 08:50:06;;;;;;;;;;;4.00;99.90;;;;;;5044795;28;19964;-76
2021/12/08 08:52:34;;;;;;;;;;;4.00;99.90;;;;;;5045046;28;19978;-77
2021/12/08 08:55:00;;;;;;;;;;;4.10;99.90;;;;;;5043818;28;20318;-76
2021/12/08 08:57:29;;;;;;;;;;;4.10;99.90;;;;;;5047507;28;19912;-77
2021/12/08 09:00:01;;;;;;;;;;;4.10;99.90;;;;;;5061821;28;19912;-77
2021/12/08 09:02:30;;;;;;;;;;;4.20;99.90;;;;;;5046666;28;19925;-77
2021/12/08 09:04:58;;;;;;;;;;;4.20;99.90;;;;;;5051315;28;20237;-77
2021/12/08 09:07:27;;;;;;;;;;;4.20;99.90;;;;;;5045486;28;19925;-76
2021/12/08 09:09:54;;;;;;;;;;;4.20;99.90;;;;;;5048876;28;19923;-76
2021/12/08 09:12:25;;;;;;;;;;;4.30;99.90;;;;;;5048451;28;19917;-75
2021/12/08 09:14:57;;;;;;;;;;;4.30;99.90;;;;;;5045613;28;19916;-75
2021/12/08 09:17:25;;;;;;;;;;;4.30;99.90;;;;;;5048101;28;19916;-76
2021/12/08 09:20:07;;;;;;;;;;;4.30;99.90;;;;;;5046683;28;20349;-76
2021/12/08 09:22:38;;;;;;;;;;;4.40;99.90;;;;;;5060161;28;19921;-76
2021/12/08 09:25:30;;;;;;;;;;;4.40;99.90;;;;;;5049603;28;20296;-76
2021/12/08 09:27:58;;;;;;;;;;;4.50;99.90;;;;;;5060817;28;20324;-75
2021/12/08 09:30:32;;;;;;;;;;;4.50;99.90;;;;;;5047699;28;19964;-76
2021/12/08 09:33:00;;;;;;;;;;;4.60;99.90;;;;;;5062162;28;19971;-76
2021/12/08 09:35:50;;;;;;;;;;;4.70;99.90;;;;;;5060511;28;19912;-76
2021/12/08 09:38:18;;;;;;;;;;;4.70;99.90;;;;;;5060384;28;19921;-76
2021/12/08 09:40:48;;;;;;;;;;;4.80;99.90;;;;;;5051208;28;19920;-78
2021/12/08 09:43:19;;;;;;;;;;;4.90;99.90;;;;;;5063425;28;19920;-80
2021/12/08 09:45:59;;;;;;;;;;;4.90;99.90;;;;;;5048531;28;21592;-77
2021/12/08 09:48:29;;;;;;;;;;;4.90;99.90;;;;;;5047527;28;19973;-77
2021/12/08 09:50:58;;;;;;;;;;;5.00;99.90;;;;;;5059713;28;20320;-77
2021/12/08 09:53:24;;;;;;;;;;;5.00;99.90;;;;;;5040436;28;19913;-76
2021/12/08 09:55:50;;;;;;;;;;;5.00;99.90;;;;;;5048430;28;20299;-77
2021/12/08 09:58:16;;;;;;;;;;;5.10;99.90;;;;;;5060067;28;19913;-77
2021/12/08 10:00:42;;;;;;;;;;;5.00;99.90;;;;;;5046534;28;19936;-77
2021/12/08 10:03:08;;;;;;;;;;;5.00;99.90;;;;;;5055700;28;20304;-77
2021/12/08 10:05:36;;;;;;;;;;;5.10;99.90;;;;;;5041462;28;19927;-78
2021/12/08 10:08:03;;;;;;;;;;;5.10;99.90;;;;;;5041829;28;19920;-77
2021/12/08 10:10:29;;;;;;;;;;;5.10;99.90;;;;;;5051211;28;19928;-77
2021/12/08 10:12:55;;;;;;;;;;;5.10;99.90;;;;;;5043385;28;19921;-79
2021/12/08 10:15:22;;;;;;;;;;;5.10;99.90;;;;;;5040430;28;20338;-78
2021/12/08 10:17:48;;;;;;;;;;;5.10;99.90;;;;;;5058873;28;19986;-76
2021/12/08 10:20:22;;;;;;;;;;;5.20;99.90;;;;;;5042034;28;20007;-77
2021/12/08 10:23:07;;;;;;;;;;;5.20;99.90;;;;;;5044226;28;19948;-76
2021/12/08 10:25:34;;;;;;;;;;;5.10;99.90;;;;;;5061327;28;20304;-77
2021/12/08 10:28:09;;;;;;;;;;;5.20;99.90;;;;;;5056077;28;19925;-78
2021/12/08 10:30:46;;;;;;;;;;;5.20;99.90;;;;;;5050071;28;20232;-76
2021/12/08 10:33:36;;;;;;;;;;;5.20;99.90;;;;;;5051147;28;20011;-77
2021/12/08 10:36:05;;;;;;;;;;;5.20;99.90;;;;;;5054478;28;20258;-77
2021/12/08 10:38:39;;;;;;;;;;;5.20;99.90;;;;;;5054548;28;19917;-77
2021/12/08 10:41:05;;;;;;;;;;;5.20;99.90;;;;;;5055159;28;20266;-76
2021/12/08 10:43:32;;;;;;;;;;;5.20;99.90;;;;;;5053546;28;19925;-76
2021/12/08 10:46:03;;;;;;;;;;;5.20;99.90;;;;;;5071453;28;20018;-77
2021/12/08 10:48:35;;;;;;;;;;;5.20;99.90;;;;;;5053586;28;19921;-77
2021/12/08 10:56:34;;;;;;;;;;;5.20;99.90;;;;;;5053350;28;19943;-76
2021/12/08 10:58:59;;;;;;;;;;;5.20;99.90;;;;;;5054798;28;19913;-77
2021/12/08 11:01:26;;;;;;;;;;;5.10;99.90;;;;;;5054516;28;19920;-78
2021/12/08 11:04:00;;;;;;;;;;;5.20;99.90;;;;;;5052518;28;20342;-78
2021/12/08 11:06:28;;;;;;;;;;;5.20;99.90;;;;;;5064807;28;19912;-78
2021/12/08 11:08:56;;;;;;;;;;;5.20;99.90;;;;;;5064011;28;19959;-78
2021/12/08 11:11:32;;;;;;;;;;;5.30;99.90;;;;;;5049748;28;19986;-79
2021/12/08 11:14:02;;;;;;;;;;;5.30;99.90;;;;;;5066040;28;19936;-77
2021/12/08 11:16:35;;;;;;;;;;;5.30;99.90;;;;;;5049739;28;19932;-78
2021/12/08 11:19:05;;;;;;;;;;;5.30;99.90;;;;;;5048543;28;19936;-79
2021/12/08 11:21:36;;;;;;;;;;;5.40;99.90;;;;;;5047835;28;20223;-78
2021/12/08 11:24:03;;;;;;;;;;;5.40;99.90;;;;;;5051780;28;19919;-79
2021/12/08 11:26:31;;;;;;;;;;;5.50;99.90;;;;;;5060797;28;19920;-79
2021/12/08 11:28:58;;;;;;;;;;;5.60;99.90;;;;;;5054196;28;19913;-77
2021/12/08 11:31:26;;;;;;;;;;;5.70;99.90;;;;;;5040586;28;20208;-79
2021/12/08 11:34:00;;;;;;;;;;;5.80;99.90;;;;;;5051365;28;19924;-78
2021/12/08 11:36:27;;;;;;;;;;;5.90;99.90;;;;;;5049880;28;19947;-78
2021/12/08 11:38:52;;;;;;;;;;;5.80;99.90;;;;;;5062825;28;20011;-78
2021/12/08 11:41:39;;;;;;;;;;;5.90;99.90;;;;;;5048093;28;20043;-79
2021/12/08 11:44:06;;;;;;;;;;;6.00;99.90;;;;;;5044800;28;19927;-77
2021/12/08 11:46:45;;;;;;;;;;;6.00;99.90;;;;;;5065927;28;19917;-80
2021/12/08 11:49:11;;;;;;;;;;;6.00;99.90;;;;;;5062862;28;19944;-79
2021/12/08 11:51:43;;;;;;;;;;;6.10;99.90;;;;;;5047320;28;19921;-78
2021/12/08 11:54:29;;;;;;;;;;;6.00;99.90;;;;;;5069162;28;19917;-79
2021/12/08 11:57:10;;;;;;;;;;;6.10;99.90;;;;;;5052865;28;20223;-80
2021/12/08 11:59:57;;;;;;;;;;;6.10;99.90;;;;;;5046572;28;19913;-79
2021/12/08 12:02:43;;;;;;;;;;;6.20;99.90;;;;;;5050548;28;19917;-78
2021/12/08 12:05:11;;;;;;;;;;;6.20;99.90;;;;;;5050207;28;19921;-77
2021/12/08 12:07:38;;;;;;;;;;;6.20;99.90;;;;;;5065350;28;20358;-79
2021/12/08 12:10:04;;;;;;;;;;;6.20;99.90;;;;;;5064280;28;20204;-79
2021/12/08 12:12:30;;;;;;;;;;;6.10;99.90;;;;;;5053778;28;19913;-78
2021/12/08 12:14:55;;;;;;;;;;;6.20;99.90;;;;;;5050153;28;19948;-79
2021/12/08 12:17:21;;;;;;;;;;;6.30;99.90;;;;;;5052122;28;20257;-79
2021/12/08 12:19:49;;;;;;;;;;;6.30;99.90;;;;;;5063287;28;19921;-80
2021/12/08 12:22:33;;;;;;;;;;;6.30;99.90;;;;;;5047502;28;19948;-80
2021/12/08 12:25:12;;;;;;;;;;;6.30;99.90;;;;;;5050747;28;19921;-81
2021/12/08 12:27:40;;;;;;;;;;;6.30;99.90;;;;;;5049347;28;19920;-79
2021/12/08 12:30:18;;;;;;;;;;;6.30;99.90;;;;;;5043786;28;19913;-79
2021/12/08 12:32:43;;;;;;;;;;;6.40;99.90;;;;;;5052859;28;19920;-79
2021/12/08 12:35:20;;;;;;;;;;;6.40;99.90;;;;;;5060257;28;19955;-79
2021/12/08 12:37:46;;;;;;;;;;;6.40;99.90;;;;;;5050130;28;19913;-79
2021/12/08 12:40:13;;;;;;;;;;;6.40;99.90;;;;;;5052398;22;20005;-81
2021/12/08 12:42:43;;;;;;;;;;;6.50;99.90;;;;;;5042555;28;19928;-81
2021/12/08 12:45:09;;;;;;;;;;;6.50;99.90;;;;;;5045593;28;19913;-80
2021/12/08 12:47:35;;;;;;;;;;;6.40;99.90;;;;;;5043575;28;20255;-79
2021/12/08 12:50:04;;;;;;;;;;;6.50;99.90;;;;;;5043903;28;19920;-81
2021/12/08 12:52:43;;;;;;;;;;;6.50;99.90;;;;;;5042966;28;20511;-81
2021/12/08 12:55:13;;;;;;;;;;;6.60;99.90;;;;;;5044094;28;19924;-80
2021/12/08 12:57:58;;;;;;;;;;;6.60;99.90;;;;;;5042099;28;19917;-82
2021/12/08 13:00:28;;;;;;;;;;;6.60;99.90;;;;;;5042834;28;19970;-80
2021/12/08 13:02:53;;;;;;;;;;;6.70;99.90;;;;;;5044600;28;19951;-81
2021/12/08 13:05:19;;;;;;;;;;;6.70;99.90;;;;;;5049567;28;19960;-81
2021/12/08 13:07:58;;;;;;;;;;;6.70;99.90;;;;;;5044853;28;19960;-80
2021/12/08 13:10:33;;;;;;;;;;;6.70;99.90;;;;;;5043089;28;19955;-82
2021/12/08 13:13:17;;;;;;;;;;;6.70;99.90;;;;;;5040662;28;19913;-82
2021/12/08 13:15:46;;;;;;;;;;;6.70;99.90;;;;;;5058215;28;20258;-81
2021/12/08 13:18:16;;;;;;;;;;;6.60;99.90;;;;;;5032153;28;19917;-81
2021/12/08 13:20:42;;;;;;;;;;;6.60;99.90;;;;;;5036026;28;20370;-81
2021/12/08 13:23:08;;;;;;;;;;;6.50;99.90;;;;;;5029509;28;19920;-83
2021/12/08 13:25:49;;;;;;;;;;;6.50;99.90;;;;;;5032823;28;20620;-81
2021/12/08 13:28:26;;;;;;;;;;;6.50;99.90;;;;;;5035442;28;19920;-82
2021/12/08 13:30:54;;;;;;;;;;;6.50;99.90;;;;;;5033341;28;19917;-81
2021/12/08 13:33:21;;;;;;;;;;;6.50;99.90;;;;;;5034789;28;20637;-79
2021/12/08 13:35:47;;;;;;;;;;;6.50;99.90;;;;;;5024899;28;19921;-81
2021/12/08 13:38:12;;;;;;;;;;;6.50;99.90;;;;;;5034729;28;19917;-82
2021/12/08 13:40:43;;;;;;;;;;;6.40;99.90;;;;;;5033371;28;19978;-81
2021/12/08 13:43:10;;;;;;;;;;;6.40;99.90;;;;;;5028379;28;19916;-81
2021/12/08 13:45:42;;;;;;;;;;;6.40;99.90;;;;;;5023814;28;19964;-83
2021/12/08 13:48:08;;;;;;;;;;;6.50;99.90;;;;;;5020222;28;19927;-82
2021/12/08 13:50:34;;;;;;;;;;;6.40;99.90;;;;;;5056580;28;19917;-81
2021/12/08 13:53:06;;;;;;;;;;;6.30;99.90;;;;;;5041741;28;19939;-80
2021/12/08 13:55:33;;;;;;;;;;;6.30;99.90;;;;;;5043428;28;20130;-83
2021/12/08 13:58:02;;;;;;;;;;;6.30;99.90;;;;;;5042859;28;19912;-81
2021/12/08 14:00:29;;;;;;;;;;;6.20;99.90;;;;;;5048919;28;19928;-80
2021/12/08 14:03:02;;;;;;;;;;;6.20;99.90;;;;;;5044401;28;19923;-82
2021/12/08 14:05:39;;;;;;;;;;;6.10;99.90;;;;;;5055844;28;19931;-80
2021/12/08 14:08:05;;;;;;;;;;;6.00;99.90;;;;;;5048927;28;19913;-80
2021/12/08 14:10:34;;;;;;;;;;;6.00;99.90;;;;;;5044350;28;19917;-81
2021/12/08 14:13:08;;;;;;;;;;;5.90;99.90;;;;;;5040796;28;20033;-83
2021/12/08 14:15:39;;;;;;;;;;;5.90;99.90;;;;;;5041708;28;19913;-81
2021/12/08 14:18:11;;;;;;;;;;;5.90;99.90;;;;;;5042938;28;20020;-80
2021/12/08 14:20:36;;;;;;;;;;;5.90;99.90;;;;;;5057285;28;19940;-80
2021/12/08 14:23:02;;;;;;;;;;;5.90;99.90;;;;;;5060152;28;20216;-80
2021/12/08 14:25:37;;;;;;;;;;;5.90;99.90;;;;;;5041518;28;20004;-81
2021/12/08 14:28:22;;;;;;;;;;;5.90;99.90;;;;;;5047520;28;19921;-82
2021/12/08 14:30:47;;;;;;;;;;;5.90;99.90;;;;;;5054049;28;19914;-83
2021/12/08 14:33:13;;;;;;;;;;;5.90;99.90;;;;;;5044018;28;19924;-81
2021/12/08 14:35:38;;;;;;;;;;;5.90;99.90;;;;;;5042630;28;19952;-83
2021/12/08 14:38:04;;;;;;;;;;;5.90;99.90;;;;;;5045220;28;19916;-81
2021/12/08 14:40:30;;;;;;;;;;;6.00;99.90;;;;;;5041324;28;20580;-81
2021/12/08 14:42:56;;;;;;;;;;;5.90;99.90;;;;;;5040899;28;19921;-82
2021/12/08 14:45:26;;;;;;;;;;;5.90;99.90;;;;;;5045173;28;19921;-80
2021/12/08 14:47:52;;;;;;;;;;;5.90;99.90;;;;;;5059110;28;19919;-83
2021/12/08 14:50:23;;;;;;;;;;;5.90;99.90;;;;;;5033265;28;19917;-81
2021/12/08 14:52:50;;;;;;;;;;;5.90;99.90;;;;;;5040870;28;19974;-81
2021/12/08 14:55:21;;;;;;;;;;;6.00;99.90;;;;;;5039650;28;20228;-82
2021/12/08 14:57:51;;;;;;;;;;;6.00;99.90;;;;;;5042270;28;20197;-81
2021/12/08 15:00:32;;;;;;;;;;;6.00;99.90;;;;;;5039408;28;19916;-80
2021/12/08 15:03:04;;;;;;;;;;;5.90;99.90;;;;;;5042923;28;20031;-81
2021/12/08 15:05:30;;;;;;;;;;;5.90;99.90;;;;;;5027193;28;20000;-83
2021/12/08 15:07:56;;;;;;;;;;;5.80;99.90;;;;;;5038932;28;19913;-81
2021/12/08 15:10:26;;;;;;;;;;;5.80;99.90;;;;;;5043412;28;19917;-79
2021/12/08 15:13:04;;;;;;;;;;;5.80;99.90;;;;;;5045607;28;19975;-80
2021/12/08 15:15:31;;;;;;;;;;;5.70;99.90;;;;;;5045719;28;19917;-80
2021/12/08 15:18:05;;;;;;;;;;;5.70;99.90;;;;;;5045827;28;19912;-81
2021/12/08 15:20:32;;;;;;;;;;;5.60;99.90;;;;;;5040735;28;19963;-79
2021/12/08 15:22:58;;;;;;;;;;;5.60;99.90;;;;;;5043725;28;19921;-80
2021/12/08 15:25:23;;;;;;;;;;;5.50;99.90;;;;;;5044766;28;19940;-80
2021/12/08 15:27:56;;;;;;;;;;;5.50;99.90;;;;;;5046479;28;19927;-81